sensor_id;sensor_type;location;lat;lon;timestamp;pressure;altitude;pressure_sealevel;temperature;humidity
58644;BME280;44411;49.994;8.660;2022-12-24T00:00:56;99402.31;;;9.85;84.86
58644;BME280;44411;49.994;8.660;2022-12-24T00:03:22;99405.44;;;9.92;84.41
58644;BME280;44411;49.994;8.660;2022-12-24T00:05:47;99405.13;;;9.80;83.85
58644;BME280;44411;49.994;8.660;2022-12-24T00:08:13;99404.34;;;9.79;83.36
58644;BME280;44411;49.994;8.660;2022-12-24T00:10:38;99410.25;;;9.68;85.16
58644;BME280;44411;49.994;8.660;2022-12-24T00:13:03;99407.53;;;9.68;85.00
58644;BME280;44411;49.994;8.660;2022-12-24T00:15:29;99412.09;;;9.72;83.97
58644;BME280;44411;49.994;8.660;2022-12-24T00:17:54;99406.25;;;9.65;86.63
58644;BME280;44411;49.994;8.660;2022-12-24T00:20:19;99420.97;;;9.78;84.40
58644;BME280;44411;49.994;8.660;2022-12-24T00:22:44;99422.41;;;9.75;83.44
58644;BME280;44411;49.994;8.660;2022-12-24T00:25:10;99419.97;;;9.74;85.07
58644;BME280;44411;49.994;8.660;2022-12-24T00:27:35;99422.31;;;9.80;81.95
58644;BME280;44411;49.994;8.660;2022-12-24T00:30:00;99431.25;;;9.67;84.59
58644;BME280;44411;49.994;8.660;2022-12-24T00:32:26;99420.06;;;9.69;83.77
58644;BME280;44411;49.994;8.660;2022-12-24T00:34:51;99426.22;;;9.60;84.10
58644;BME280;44411;49.994;8.660;2022-12-24T00:37:16;99432.19;;;9.63;83.33
58644;BME280;44411;49.994;8.660;2022-12-24T00:39:41;99431.88;;;9.64;83.44
58644;BME280;44411;49.994;8.660;2022-12-24T00:42:07;99445.50;;;9.64;82.77
58644;BME280;44411;49.994;8.660;2022-12-24T00:44:32;99442.44;;;9.66;81.51
58644;BME280;44411;49.994;8.660;2022-12-24T00:46:57;99447.19;;;9.46;81.71
58644;BME280;44411;49.994;8.660;2022-12-24T00:49:23;99448.09;;;9.55;81.75
58644;BME280;44411;49.994;8.660;2022-12-24T00:51:48;99451.41;;;9.52;81.99
58644;BME280;44411;49.994;8.660;2022-12-24T00:54:14;99445.16;;;9.52;81.11
58644;BME280;44411;49.994;8.660;2022-12-24T00:56:40;99450.31;;;9.53;80.15
58644;BME280;44411;49.994;8.660;2022-12-24T00:59:05;99453.34;;;9.66;78.93
58644;BME280;44411;49.994;8.660;2022-12-24T01:22:18;99465.16;;;9.61;79.16
58644;BME280;44411;49.994;8.660;2022-12-24T01:24:44;99474.63;;;9.64;80.08
58644;BME280;44411;49.994;8.660;2022-12-24T01:27:09;99486.16;;;9.74;78.31
58644;BME280;44411;49.994;8.660;2022-12-24T01:29:35;99484.44;;;9.65;79.45
58644;BME280;44411;49.994;8.660;2022-12-24T01:32:00;99483.53;;;9.69;77.27
58644;BME280;44411;49.994;8.660;2022-12-24T01:34:26;99496.84;;;9.71;78.42
58644;BME280;44411;49.994;8.660;2022-12-24T01:36:51;99501.28;;;9.67;79.15
58644;BME280;44411;49.994;8.660;2022-12-24T01:39:16;99497.97;;;9.70;79.88
58644;BME280;44411;49.994;8.660;2022-12-24T01:41:42;99512.19;;;9.67;78.82
58644;BME280;44411;49.994;8.660;2022-12-24T01:44:32;99510.88;;;9.78;79.57
58644;BME280;44411;49.994;8.660;2022-12-24T01:47:13;99506.72;;;9.67;79.92
58644;BME280;44411;49.994;8.660;2022-12-24T01:49:44;99525.59;;;9.63;79.97
58644;BME280;44411;49.994;8.660;2022-12-24T01:52:19;99521.13;;;9.53;80.79
58644;BME280;44411;49.994;8.660;2022-12-24T01:54:55;99521.94;;;9.54;81.57
58644;BME280;44411;49.994;8.660;2022-12-24T01:59:53;99547.81;;;9.51;81.10
58644;BME280;44411;49.994;8.660;2022-12-24T02:02:20;99541.78;;;9.54;80.81
58644;BME280;44411;49.994;8.660;2022-12-24T02:04:52;99533.06;;;9.38;81.86
58644;BME280;44411;49.994;8.660;2022-12-24T02:07:20;99556.31;;;9.31;82.05
58644;BME280;44411;49.994;8.660;2022-12-24T02:09:46;99555.81;;;9.29;82.59
58644;BME280;44411;49.994;8.660;2022-12-24T02:12:14;99547.72;;;9.23;82.31
58644;BME280;44411;49.994;8.660;2022-12-24T02:14:39;99557.66;;;9.14;83.05
58644;BME280;44411;49.994;8.660;2022-12-24T02:23:54;99572.97;;;9.10;82.91
58644;BME280;44411;49.994;8.660;2022-12-24T02:32:04;99584.47;;;9.02;83.60
58644;BME280;44411;49.994;8.660;2022-12-24T02:37:22;99570.81;;;9.07;83.30
58644;BME280;44411;49.994;8.660;2022-12-24T02:40:02;99587.88;;;9.13;82.77
58644;BME280;44411;49.994;8.660;2022-12-24T02:42:34;99580.53;;;9.13;82.28
58644;BME280;44411;49.994;8.660;2022-12-24T02:45:04;99578.47;;;9.05;83.46
58644;BME280;44411;49.994;8.660;2022-12-24T02:47:31;99577.44;;;9.01;83.47
58644;BME280;44411;49.994;8.660;2022-12-24T02:50:00;99583.47;;;8.98;83.81
58644;BME280;44411;49.994;8.660;2022-12-24T02:52:37;99590.75;;;9.02;83.96
58644;BME280;44411;49.994;8.660;2022-12-24T02:55:09;99588.47;;;9.10;82.94
58644;BME280;44411;49.994;8.660;2022-12-24T02:57:49;99608.34;;;9.10;83.76
58644;BME280;44411;49.994;8.660;2022-12-24T03:00:20;99611.56;;;9.12;82.69
58644;BME280;44411;49.994;8.660;2022-12-24T03:13:18;99648.66;;;9.08;83.23
58644;BME280;44411;49.994;8.660;2022-12-24T03:15:44;99638.91;;;9.02;84.34
58644;BME280;44411;49.994;8.660;2022-12-24T03:18:13;99650.53;;;9.08;83.57
58644;BME280;44411;49.994;8.660;2022-12-24T03:20:43;99648.75;;;8.98;83.58
58644;BME280;44411;49.994;8.660;2022-12-24T03:23:09;99643.16;;;8.89;85.20
58644;BME280;44411;49.994;8.660;2022-12-24T03:25:38;99650.09;;;9.00;84.17
58644;BME280;44411;49.994;8.660;2022-12-24T03:28:08;99634.41;;;8.92;85.14
58644;BME280;44411;49.994;8.660;2022-12-24T03:30:39;99642.56;;;8.92;84.99
58644;BME280;44411;49.994;8.660;2022-12-24T03:33:05;99637.41;;;8.91;85.29
58644;BME280;44411;49.994;8.660;2022-12-24T03:35:31;99637.88;;;8.98;83.96
58644;BME280;44411;49.994;8.660;2022-12-24T03:37:56;99638.56;;;9.09;83.96
58644;BME280;44411;49.994;8.660;2022-12-24T03:40:21;99647.41;;;9.19;82.87
58644;BME280;44411;49.994;8.660;2022-12-24T03:42:47;99632.84;;;9.10;83.73
58644;BME280;44411;49.994;8.660;2022-12-24T03:45:12;99641.78;;;9.11;83.76
58644;BME280;44411;49.994;8.660;2022-12-24T03:47:37;99649.56;;;9.22;82.98
58644;BME280;44411;49.994;8.660;2022-12-24T03:50:03;99646.09;;;9.17;83.63
58644;BME280;44411;49.994;8.660;2022-12-24T03:52:28;99652.28;;;9.22;83.30
58644;BME280;44411;49.994;8.660;2022-12-24T03:54:53;99661.47;;;9.27;82.25
58644;BME280;44411;49.994;8.660;2022-12-24T03:57:19;99647.56;;;9.28;83.27
58644;BME280;44411;49.994;8.660;2022-12-24T03:59:44;99628.06;;;9.21;82.97
58644;BME280;44411;49.994;8.660;2022-12-24T04:02:09;99645.06;;;9.32;82.19
58644;BME280;44411;49.994;8.660;2022-12-24T04:04:35;99652.72;;;9.30;82.09
58644;BME280;44411;49.994;8.660;2022-12-24T04:07:02;99652.19;;;9.28;81.98
58644;BME280;44411;49.994;8.660;2022-12-24T04:09:27;99651.38;;;9.27;83.44
58644;BME280;44411;49.994;8.660;2022-12-24T04:11:53;99654.38;;;9.26;82.71
58644;BME280;44411;49.994;8.660;2022-12-24T04:14:18;99656.41;;;9.39;82.64
58644;BME280;44411;49.994;8.660;2022-12-24T04:16:43;99661.56;;;9.40;82.10
58644;BME280;44411;49.994;8.660;2022-12-24T04:19:09;99676.44;;;9.48;82.09
58644;BME280;44411;49.994;8.660;2022-12-24T04:21:34;99670.47;;;9.46;82.92
58644;BME280;44411;49.994;8.660;2022-12-24T04:23:59;99666.84;;;9.51;82.59
58644;BME280;44411;49.994;8.660;2022-12-24T04:26:25;99665.31;;;9.45;81.88
58644;BME280;44411;49.994;8.660;2022-12-24T04:28:50;99690.28;;;9.52;83.27
58644;BME280;44411;49.994;8.660;2022-12-24T04:31:16;99690.28;;;9.52;82.59
58644;BME280;44411;49.994;8.660;2022-12-24T04:33:42;99694.25;;;9.59;82.82
58644;BME280;44411;49.994;8.660;2022-12-24T04:36:11;99691.66;;;9.49;83.27
58644;BME280;44411;49.994;8.660;2022-12-24T04:38:37;99698.72;;;9.50;82.08
58644;BME280;44411;49.994;8.660;2022-12-24T04:41:05;99687.38;;;9.43;82.88
58644;BME280;44411;49.994;8.660;2022-12-24T04:43:31;99694.31;;;9.54;82.20
58644;BME280;44411;49.994;8.660;2022-12-24T04:46:03;99683.63;;;9.39;83.90
58644;BME280;44411;49.994;8.660;2022-12-24T04:48:29;99693.41;;;9.40;83.23
58644;BME280;44411;49.994;8.660;2022-12-24T04:50:54;99681.84;;;9.29;83.84
58644;BME280;44411;49.994;8.660;2022-12-24T04:53:19;99681.56;;;9.31;84.48
58644;BME280;44411;49.994;8.660;2022-12-24T04:55:45;99684.16;;;9.41;83.51
58644;BME280;44411;49.994;8.660;2022-12-24T04:58:12;99662.50;;;9.31;83.38
58644;BME280;44411;49.994;8.660;2022-12-24T05:00:38;99654.53;;;9.15;84.64
58644;BME280;44411;49.994;8.660;2022-12-24T05:03:03;99690.00;;;9.29;84.43
58644;BME280;44411;49.994;8.660;2022-12-24T05:05:29;99686.47;;;9.29;83.79
58644;BME280;44411;49.994;8.660;2022-12-24T05:07:54;99684.34;;;9.26;84.09
58644;BME280;44411;49.994;8.660;2022-12-24T05:10:19;99700.38;;;9.27;83.75
58644;BME280;44411;49.994;8.660;2022-12-24T05:12:44;99701.91;;;9.14;85.21
58644;BME280;44411;49.994;8.660;2022-12-24T05:15:10;99696.47;;;9.14;84.84
58644;BME280;44411;49.994;8.660;2022-12-24T05:17:35;99700.94;;;9.05;85.38
58644;BME280;44411;49.994;8.660;2022-12-24T05:20:00;99689.28;;;8.99;85.69
58644;BME280;44411;49.994;8.660;2022-12-24T05:22:26;99707.53;;;8.99;86.09
58644;BME280;44411;49.994;8.660;2022-12-24T05:25:10;99693.09;;;8.98;85.86
58644;BME280;44411;49.994;8.660;2022-12-24T05:27:54;99676.03;;;8.93;85.57
58644;BME280;44411;49.994;8.660;2022-12-24T05:30:19;99688.53;;;8.94;86.05
58644;BME280;44411;49.994;8.660;2022-12-24T05:32:45;99695.91;;;8.93;86.24
58644;BME280;44411;49.994;8.660;2022-12-24T05:35:10;99692.34;;;8.93;86.61
58644;BME280;44411;49.994;8.660;2022-12-24T05:37:35;99691.59;;;8.87;87.02
58644;BME280;44411;49.994;8.660;2022-12-24T05:40:00;99698.97;;;8.87;87.53
58644;BME280;44411;49.994;8.660;2022-12-24T05:42:26;99707.66;;;8.89;87.10
58644;BME280;44411;49.994;8.660;2022-12-24T05:44:51;99713.88;;;8.89;87.48
58644;BME280;44411;49.994;8.660;2022-12-24T05:47:16;99704.88;;;8.94;87.44
58644;BME280;44411;49.994;8.660;2022-12-24T05:49:42;99706.47;;;8.95;87.93
58644;BME280;44411;49.994;8.660;2022-12-24T05:52:07;99721.66;;;9.01;87.42
58644;BME280;44411;49.994;8.660;2022-12-24T05:54:32;99704.59;;;8.95;88.06
58644;BME280;44411;49.994;8.660;2022-12-24T05:56:57;99709.66;;;9.02;87.50
58644;BME280;44411;49.994;8.660;2022-12-24T05:59:23;99710.81;;;8.96;88.10
58644;BME280;44411;49.994;8.660;2022-12-24T06:01:48;99698.91;;;8.92;88.29
58644;BME280;44411;49.994;8.660;2022-12-24T06:04:13;99703.47;;;8.96;87.92
58644;BME280;44411;49.994;8.660;2022-12-24T06:06:39;99705.38;;;8.96;88.56
58644;BME280;44411;49.994;8.660;2022-12-24T06:09:04;99708.00;;;9.06;87.63
58644;BME280;44411;49.994;8.660;2022-12-24T06:11:30;99719.34;;;9.13;87.21
58644;BME280;44411;49.994;8.660;2022-12-24T06:13:55;99727.06;;;9.06;87.82
58644;BME280;44411;49.994;8.660;2022-12-24T06:16:22;99731.91;;;9.09;87.64
58644;BME280;44411;49.994;8.660;2022-12-24T06:18:48;99725.94;;;9.07;86.99
58644;BME280;44411;49.994;8.660;2022-12-24T06:21:14;99729.41;;;9.13;87.64
58644;BME280;44411;49.994;8.660;2022-12-24T06:23:41;99719.41;;;9.08;87.27
58644;BME280;44411;49.994;8.660;2022-12-24T06:26:08;99712.00;;;9.14;87.68
58644;BME280;44411;49.994;8.660;2022-12-24T06:28:35;99717.88;;;9.21;87.49
58644;BME280;44411;49.994;8.660;2022-12-24T06:31:02;99732.31;;;9.21;87.27
58644;BME280;44411;49.994;8.660;2022-12-24T06:33:28;99714.44;;;9.15;86.88
58644;BME280;44411;49.994;8.660;2022-12-24T06:35:54;99735.59;;;9.18;87.49
58644;BME280;44411;49.994;8.660;2022-12-24T06:38:20;99736.56;;;9.28;86.90
58644;BME280;44411;49.994;8.660;2022-12-24T06:40:46;99741.91;;;9.38;86.07
58644;BME280;44411;49.994;8.660;2022-12-24T06:43:12;99727.25;;;9.34;86.64
58644;BME280;44411;49.994;8.660;2022-12-24T06:45:38;99743.59;;;9.34;86.48
58644;BME280;44411;49.994;8.660;2022-12-24T06:48:04;99744.34;;;9.39;86.02
58644;BME280;44411;49.994;8.660;2022-12-24T06:50:31;99742.78;;;9.33;85.96
58644;BME280;44411;49.994;8.660;2022-12-24T06:52:57;99747.28;;;9.43;85.68
58644;BME280;44411;49.994;8.660;2022-12-24T06:55:22;99738.94;;;9.34;86.56
58644;BME280;44411;49.994;8.660;2022-12-24T06:57:47;99757.72;;;9.36;86.63
58644;BME280;44411;49.994;8.660;2022-12-24T07:00:13;99751.03;;;9.28;86.86
58644;BME280;44411;49.994;8.660;2022-12-24T07:02:39;99750.31;;;9.17;87.33
58644;BME280;44411;49.994;8.660;2022-12-24T07:05:05;99784.94;;;9.36;86.81
58644;BME280;44411;49.994;8.660;2022-12-24T07:07:31;99788.25;;;9.33;87.20
58644;BME280;44411;49.994;8.660;2022-12-24T07:09:56;99785.28;;;9.29;87.24
58644;BME280;44411;49.994;8.660;2022-12-24T07:12:21;99783.09;;;9.31;87.08
58644;BME280;44411;49.994;8.660;2022-12-24T07:14:47;99791.50;;;9.35;86.33
58644;BME280;44411;49.994;8.660;2022-12-24T07:17:12;99775.47;;;9.33;86.86
58644;BME280;44411;49.994;8.660;2022-12-24T07:19:37;99790.41;;;9.36;86.92
58644;BME280;44411;49.994;8.660;2022-12-24T07:22:02;99800.44;;;9.40;86.23
58644;BME280;44411;49.994;8.660;2022-12-24T07:24:28;99801.25;;;9.41;86.89
58644;BME280;44411;49.994;8.660;2022-12-24T07:26:53;99782.84;;;9.28;86.49
58644;BME280;44411;49.994;8.660;2022-12-24T07:29:18;99799.53;;;9.45;86.21
58644;BME280;44411;49.994;8.660;2022-12-24T07:31:44;99798.28;;;9.37;86.59
58644;BME280;44411;49.994;8.660;2022-12-24T07:34:09;99814.06;;;9.40;86.37
58644;BME280;44411;49.994;8.660;2022-12-24T07:36:35;99811.84;;;9.43;86.77
58644;BME280;44411;49.994;8.660;2022-12-24T07:39:00;99809.97;;;9.38;86.42
58644;BME280;44411;49.994;8.660;2022-12-24T07:41:25;99814.09;;;9.35;86.34
58644;BME280;44411;49.994;8.660;2022-12-24T07:43:50;99832.00;;;9.41;86.52
58644;BME280;44411;49.994;8.660;2022-12-24T07:46:16;99825.75;;;9.41;86.37
58644;BME280;44411;49.994;8.660;2022-12-24T07:48:41;99824.09;;;9.40;86.93
58644;BME280;44411;49.994;8.660;2022-12-24T07:51:06;99836.63;;;9.41;86.74
58644;BME280;44411;49.994;8.660;2022-12-24T07:53:32;99841.19;;;9.46;86.79
58644;BME280;44411;49.994;8.660;2022-12-24T07:55:58;99848.56;;;9.45;86.73
58644;BME280;44411;49.994;8.660;2022-12-24T07:58:23;99835.59;;;9.37;87.05
58644;BME280;44411;49.994;8.660;2022-12-24T08:00:55;99836.13;;;9.39;86.93
58644;BME280;44411;49.994;8.660;2022-12-24T08:03:20;99846.13;;;9.44;86.89
58644;BME280;44411;49.994;8.660;2022-12-24T08:05:47;99852.41;;;9.44;86.80
58644;BME280;44411;49.994;8.660;2022-12-24T08:08:12;99842.03;;;9.46;85.91
58644;BME280;44411;49.994;8.660;2022-12-24T08:10:39;99857.50;;;9.51;85.97
58644;BME280;44411;49.994;8.660;2022-12-24T08:13:04;99868.38;;;9.51;86.67
58644;BME280;44411;49.994;8.660;2022-12-24T08:15:30;99868.63;;;9.54;86.12
58644;BME280;44411;49.994;8.660;2022-12-24T08:17:55;99878.38;;;9.60;85.77
58644;BME280;44411;49.994;8.660;2022-12-24T08:20:21;99850.19;;;9.46;86.59
58644;BME280;44411;49.994;8.660;2022-12-24T08:22:46;99863.41;;;9.58;85.95
58644;BME280;44411;49.994;8.660;2022-12-24T08:25:11;99875.41;;;9.57;86.39
58644;BME280;44411;49.994;8.660;2022-12-24T08:27:37;99872.47;;;9.53;87.06
58644;BME280;44411;49.994;8.660;2022-12-24T08:30:03;99882.41;;;9.63;86.61
58644;BME280;44411;49.994;8.660;2022-12-24T08:32:28;99878.94;;;9.57;87.42
58644;BME280;44411;49.994;8.660;2022-12-24T08:34:54;99874.63;;;9.51;88.30
58644;BME280;44411;49.994;8.660;2022-12-24T08:37:19;99885.84;;;9.50;88.61
58644;BME280;44411;49.994;8.660;2022-12-24T08:39:45;99890.44;;;9.49;87.69
58644;BME280;44411;49.994;8.660;2022-12-24T08:42:10;99878.53;;;9.45;89.08
58644;BME280;44411;49.994;8.660;2022-12-24T08:44:35;99876.38;;;9.42;89.21
58644;BME280;44411;49.994;8.660;2022-12-24T08:47:00;99888.94;;;9.38;89.32
58644;BME280;44411;49.994;8.660;2022-12-24T08:49:26;99882.97;;;9.36;90.00
58644;BME280;44411;49.994;8.660;2022-12-24T08:51:51;99888.47;;;9.31;91.06
58644;BME280;44411;49.994;8.660;2022-12-24T08:54:16;99901.56;;;9.29;91.14
58644;BME280;44411;49.994;8.660;2022-12-24T08:56:42;99898.63;;;9.20;91.82
58644;BME280;44411;49.994;8.660;2022-12-24T08:59:07;99909.53;;;9.20;91.88
58644;BME280;44411;49.994;8.660;2022-12-24T09:01:32;99893.47;;;9.18;91.87
58644;BME280;44411;49.994;8.660;2022-12-24T09:04:00;99905.19;;;9.19;91.93
58644;BME280;44411;49.994;8.660;2022-12-24T09:06:25;99901.84;;;9.27;91.91
58644;BME280;44411;49.994;8.660;2022-12-24T09:08:51;99911.94;;;9.27;91.91
58644;BME280;44411;49.994;8.660;2022-12-24T09:11:17;99912.97;;;9.31;92.18
58644;BME280;44411;49.994;8.660;2022-12-24T09:13:43;99916.56;;;9.26;92.66
58644;BME280;44411;49.994;8.660;2022-12-24T09:16:09;99926.22;;;9.13;93.53
58644;BME280;44411;49.994;8.660;2022-12-24T09:18:34;99923.56;;;9.03;93.79
58644;BME280;44411;49.994;8.660;2022-12-24T09:21:08;99930.56;;;9.09;93.79
58644;BME280;44411;49.994;8.660;2022-12-24T09:23:36;99933.50;;;9.18;93.73
58644;BME280;44411;49.994;8.660;2022-12-24T09:28:38;99929.66;;;9.24;94.47
58644;BME280;44411;49.994;8.660;2022-12-24T09:31:04;99936.94;;;9.29;93.86
58644;BME280;44411;49.994;8.660;2022-12-24T09:33:35;99941.59;;;9.28;94.16
58644;BME280;44411;49.994;8.660;2022-12-24T09:36:01;99948.31;;;9.36;93.64
58644;BME280;44411;49.994;8.660;2022-12-24T09:38:27;99940.97;;;9.36;93.81
58644;BME280;44411;49.994;8.660;2022-12-24T09:40:53;99932.41;;;9.19;94.09
58644;BME280;44411;49.994;8.660;2022-12-24T09:43:21;99963.84;;;9.35;94.29
58644;BME280;44411;49.994;8.660;2022-12-24T09:48:36;99966.91;;;9.29;93.26
58644;BME280;44411;49.994;8.660;2022-12-24T09:51:15;99979.44;;;9.30;93.04
58644;BME280;44411;49.994;8.660;2022-12-24T09:54:14;99973.59;;;9.41;92.22
58644;BME280;44411;49.994;8.660;2022-12-24T09:56:46;99971.56;;;9.57;92.72
58644;BME280;44411;49.994;8.660;2022-12-24T09:59:40;99972.59;;;9.61;92.95
58644;BME280;44411;49.994;8.660;2022-12-24T10:02:16;99981.03;;;9.60;92.58
58644;BME280;44411;49.994;8.660;2022-12-24T10:04:53;99957.28;;;9.36;93.22
58644;BME280;44411;49.994;8.660;2022-12-24T10:18:37;100000.31;;;9.69;92.32
58644;BME280;44411;49.994;8.660;2022-12-24T10:21:14;99997.06;;;9.67;92.45
58644;BME280;44411;49.994;8.660;2022-12-24T10:26:24;100009.41;;;9.88;90.79
58644;BME280;44411;49.994;8.660;2022-12-24T10:28:59;99996.81;;;9.92;91.01
58644;BME280;44411;49.994;8.660;2022-12-24T10:31:29;99999.06;;;10.09;91.50
58644;BME280;44411;49.994;8.660;2022-12-24T10:34:02;99997.47;;;10.32;92.18
58644;BME280;44411;49.994;8.660;2022-12-24T10:36:30;99988.28;;;10.47;89.26
58644;BME280;44411;49.994;8.660;2022-12-24T10:38:56;100008.22;;;10.67;87.29
58644;BME280;44411;49.994;8.660;2022-12-24T10:41:24;99993.41;;;10.73;87.14
58644;BME280;44411;49.994;8.660;2022-12-24T10:43:51;100001.63;;;10.92;87.69
58644;BME280;44411;49.994;8.660;2022-12-24T10:46:24;99997.03;;;10.87;87.58
58644;BME280;44411;49.994;8.660;2022-12-24T10:48:58;100010.38;;;10.89;86.35
58644;BME280;44411;49.994;8.660;2022-12-24T10:51:40;100008.78;;;10.88;87.66
58644;BME280;44411;49.994;8.660;2022-12-24T10:54:19;100006.13;;;10.83;87.84
58644;BME280;44411;49.994;8.660;2022-12-24T10:57:25;100009.34;;;10.85;85.81
58644;BME280;44411;49.994;8.660;2022-12-24T10:59:54;100008.47;;;10.70;85.77
58644;BME280;44411;49.994;8.660;2022-12-24T11:02:28;100010.38;;;10.70;85.87
58644;BME280;44411;49.994;8.660;2022-12-24T11:04:55;100012.44;;;10.78;84.32
58644;BME280;44411;49.994;8.660;2022-12-24T11:07:22;100015.31;;;10.87;84.12
58644;BME280;44411;49.994;8.660;2022-12-24T11:12:29;100015.47;;;10.95;83.54
58644;BME280;44411;49.994;8.660;2022-12-24T11:15:04;100020.03;;;11.00;85.11
58644;BME280;44411;49.994;8.660;2022-12-24T11:17:31;100021.75;;;10.96;84.87
58644;BME280;44411;49.994;8.660;2022-12-24T11:19:58;100018.06;;;10.87;84.90
58644;BME280;44411;49.994;8.660;2022-12-24T11:22:29;100014.31;;;10.83;85.36
58644;BME280;44411;49.994;8.660;2022-12-24T11:25:19;99969.06;;;10.57;85.16
58644;BME280;44411;49.994;8.660;2022-12-24T11:27:49;100016.41;;;10.86;85.14
58644;BME280;44411;49.994;8.660;2022-12-24T11:32:43;100017.25;;;10.86;85.24
58644;BME280;44411;49.994;8.660;2022-12-24T11:35:29;100015.84;;;10.89;84.85
58644;BME280;44411;49.994;8.660;2022-12-24T11:40:36;100009.94;;;10.82;85.47
58644;BME280;44411;49.994;8.660;2022-12-24T11:43:03;100003.91;;;10.85;85.31
58644;BME280;44411;49.994;8.660;2022-12-24T11:45:30;100004.41;;;10.87;84.65
58644;BME280;44411;49.994;8.660;2022-12-24T11:47:57;100002.88;;;10.81;85.29
58644;BME280;44411;49.994;8.660;2022-12-24T11:55:51;99999.84;;;11.01;84.60
58644;BME280;44411;49.994;8.660;2022-12-24T11:58:36;100001.97;;;11.04;83.79
58644;BME280;44411;49.994;8.660;2022-12-24T12:01:55;100010.94;;;11.24;83.05
58644;BME280;44411;49.994;8.660;2022-12-24T12:04:17;99997.13;;;11.34;84.18
58644;BME280;44411;49.994;8.660;2022-12-24T12:06:48;100000.72;;;11.16;85.67
58644;BME280;44411;49.994;8.660;2022-12-24T12:12:07;99990.63;;;10.97;87.51
58644;BME280;44411;49.994;8.660;2022-12-24T12:14:41;99995.13;;;10.88;87.07
58644;BME280;44411;49.994;8.660;2022-12-24T12:17:38;100001.63;;;10.92;87.34
58644;BME280;44411;49.994;8.660;2022-12-24T12:20:20;99992.00;;;10.94;85.92
58644;BME280;44411;49.994;8.660;2022-12-24T12:28:06;99995.88;;;10.93;86.05
58644;BME280;44411;49.994;8.660;2022-12-24T12:30:34;99999.97;;;10.91;86.90
58644;BME280;44411;49.994;8.660;2022-12-24T12:33:16;99998.34;;;11.09;85.46
58644;BME280;44411;49.994;8.660;2022-12-24T12:35:43;100003.59;;;11.05;85.39
58644;BME280;44411;49.994;8.660;2022-12-24T12:38:21;100006.84;;;11.07;85.85
58644;BME280;44411;49.994;8.660;2022-12-24T12:41:16;100005.81;;;11.03;86.73
58644;BME280;44411;49.994;8.660;2022-12-24T12:46:48;100007.44;;;11.04;85.82
58644;BME280;44411;49.994;8.660;2022-12-24T12:51:56;100019.00;;;11.15;84.75
58644;BME280;44411;49.994;8.660;2022-12-24T12:56:56;100017.03;;;11.21;83.35
58644;BME280;44411;49.994;8.660;2022-12-24T12:59:36;100019.91;;;11.10;83.96
58644;BME280;44411;49.994;8.660;2022-12-24T13:16:26;100023.88;;;11.37;82.89
58644;BME280;44411;49.994;8.660;2022-12-24T13:19:11;100015.31;;;11.25;82.27
58644;BME280;44411;49.994;8.660;2022-12-24T13:21:44;100033.22;;;11.31;80.39
58644;BME280;44411;49.994;8.660;2022-12-24T13:24:18;100032.81;;;11.24;80.77
58644;BME280;44411;49.994;8.660;2022-12-24T13:29:42;100040.66;;;11.11;83.36
58644;BME280;44411;49.994;8.660;2022-12-24T13:37:33;100043.91;;;11.13;83.25
58644;BME280;44411;49.994;8.660;2022-12-24T13:48:00;100038.63;;;10.98;82.54
58644;BME280;44411;49.994;8.660;2022-12-24T13:50:36;100039.31;;;10.90;82.88
58644;BME280;44411;49.994;8.660;2022-12-24T13:53:03;100031.19;;;10.85;83.40
58644;BME280;44411;49.994;8.660;2022-12-24T13:55:29;100037.75;;;10.84;83.74
58644;BME280;44411;49.994;8.660;2022-12-24T13:58:01;100040.84;;;10.77;84.51
58644;BME280;44411;49.994;8.660;2022-12-24T14:00:32;100047.75;;;10.69;84.42
58644;BME280;44411;49.994;8.660;2022-12-24T14:10:56;100053.81;;;10.66;84.91
58644;BME280;44411;49.994;8.660;2022-12-24T14:16:29;100041.97;;;10.52;85.35
58644;BME280;44411;49.994;8.660;2022-12-24T14:19:09;100048.53;;;10.51;85.72
58644;BME280;44411;49.994;8.660;2022-12-24T14:21:42;100045.75;;;10.56;85.18
58644;BME280;44411;49.994;8.660;2022-12-24T14:24:19;100056.66;;;10.56;85.71
58644;BME280;44411;49.994;8.660;2022-12-24T14:26:53;100053.19;;;10.50;85.39
58644;BME280;44411;49.994;8.660;2022-12-24T14:32:35;100051.94;;;10.62;84.90
58644;BME280;44411;49.994;8.660;2022-12-24T14:37:37;100059.34;;;10.61;85.48
58644;BME280;44411;49.994;8.660;2022-12-24T14:40:03;100056.09;;;10.59;85.91
58644;BME280;44411;49.994;8.660;2022-12-24T14:42:52;100045.81;;;10.51;86.10
58644;BME280;44411;49.994;8.660;2022-12-24T14:45:31;100050.50;;;10.45;86.16
58644;BME280;44411;49.994;8.660;2022-12-24T14:48:05;100044.03;;;10.41;86.63
58644;BME280;44411;49.994;8.660;2022-12-24T14:50:56;100055.78;;;10.36;86.53
58644;BME280;44411;49.994;8.660;2022-12-24T14:53:47;100061.19;;;10.42;85.66
58644;BME280;44411;49.994;8.660;2022-12-24T14:56:19;100066.41;;;10.38;86.23
58644;BME280;44411;49.994;8.660;2022-12-24T14:58:46;100056.94;;;10.30;86.83
58644;BME280;44411;49.994;8.660;2022-12-24T15:01:21;100066.75;;;10.31;87.03
58644;BME280;44411;49.994;8.660;2022-12-24T15:04:04;100071.66;;;10.29;86.20
58644;BME280;44411;49.994;8.660;2022-12-24T15:06:36;100079.00;;;10.34;85.81
58644;BME280;44411;49.994;8.660;2022-12-24T15:09:02;100076.97;;;10.45;85.34
58644;BME280;44411;49.994;8.660;2022-12-24T15:11:27;100076.53;;;10.37;85.72
58644;BME280;44411;49.994;8.660;2022-12-24T15:13:55;100083.59;;;10.38;85.74
58644;BME280;44411;49.994;8.660;2022-12-24T15:16:27;100083.34;;;10.35;86.39
58644;BME280;44411;49.994;8.660;2022-12-24T15:18:56;100092.38;;;10.35;85.68
58644;BME280;44411;49.994;8.660;2022-12-24T15:21:33;100093.72;;;10.33;85.37
58644;BME280;44411;49.994;8.660;2022-12-24T15:24:02;100081.56;;;10.20;87.08
58644;BME280;44411;49.994;8.660;2022-12-24T15:26:33;100092.44;;;10.25;86.38
58644;BME280;44411;49.994;8.660;2022-12-24T15:29:01;100089.22;;;10.18;85.79
58644;BME280;44411;49.994;8.660;2022-12-24T15:31:37;100112.09;;;10.22;86.30
58644;BME280;44411;49.994;8.660;2022-12-24T15:34:03;100117.91;;;10.15;86.73
58644;BME280;44411;49.994;8.660;2022-12-24T15:36:35;100122.28;;;10.11;86.54
58644;BME280;44411;49.994;8.660;2022-12-24T15:39:13;100118.22;;;10.09;86.97